sensor_id;sensor_type;location;lat;lon;timestamp;noise_LAeq;noise_LA_min;noise_LA_max;noise_LA01;noise_LA95
69609;Laerm;56815;52.320;4.858;2023-08-21T00:00:01;35.25;28.29;46.73;;
69609;Laerm;56815;52.320;4.858;2023-08-21T00:00:11;37.42;27.61;46.25;;
69609;Laerm;56815;52.320;4.858;2023-08-21T00:00:23;35.89;27.67;46.59;;
69609;Laerm;56815;52.320;4.858;2023-08-21T00:00:33;37.75;28.09;50.26;;
69609;Laerm;56815;52.320;4.858;2023-08-21T00:00:43;37.07;27.89;48.89;;
69609;Laerm;56815;52.320;4.858;2023-08-21T00:00:54;36.25;28.12;46.41;;
69609;Laerm;56815;52.320;4.858;2023-08-21T00:01:04;35.23;28.45;45.57;;
69609;Laerm;56815;52.320;4.858;2023-08-21T00:01:14;35.68;28.74;46.28;;
69609;Laerm;56815;52.320;4.858;2023-08-21T00:01:24;35.03;28.53;43.75;;
69609;Laerm;56815;52.320;4.858;2023-08-21T00:01:35;36.96;28.47;45.30;;
69609;Laerm;56815;52.320;4.858;2023-08-21T00:01:45;37.40;28.38;47.43;;
69609;Laerm;56815;52.320;4.858;2023-08-21T00:01:55;36.81;29.03;46.35;;
69609;Laerm;56815;52.320;4.858;2023-08-21T00:02:06;35.84;28.12;46.39;;
69609;Laerm;56815;52.320;4.858;2023-08-21T00:02:16;35.07;28.06;44.32;;
69609;Laerm;56815;52.320;4.858;2023-08-21T00:02:26;36.13;27.67;44.21;;
69609;Laerm;56815;52.320;4.858;2023-08-21T00:02:38;36.45;28.32;45.73;;
69609;Laerm;56815;52.320;4.858;2023-08-21T00:02:48;35.18;28.44;44.73;;
69609;Laerm;56815;52.320;4.858;2023-08-21T00:02:58;37.40;28.71;46.13;;
69609;Laerm;56815;52.320;4.858;2023-08-21T00:03:08;36.97;27.97;48.54;;
69609;Laerm;56815;52.320;4.858;2023-08-21T00:03:19;37.29;28.55;46.31;;
69609;Laerm;56815;52.320;4.858;2023-08-21T00:03:29;36.64;28.27;46.89;;
69609;Laerm;56815;52.320;4.858;2023-08-21T00:03:40;36.74;28.11;46.64;;
69609;Laerm;56815;52.320;4.858;2023-08-21T00:03:50;34.78;27.75;43.77;;
69609;Laerm;56815;52.320;4.858;2023-08-21T00:04:00;34.69;27.98;43.27;;
69609;Laerm;56815;52.320;4.858;2023-08-21T00:04:11;36.88;28.17;46.65;;
69609;Laerm;56815;52.320;4.858;2023-08-21T00:04:21;35.34;27.79;48.51;;
69609;Laerm;56815;52.320;4.858;2023-08-21T00:04:32;36.40;28.12;44.59;;
69609;Laerm;56815;52.320;4.858;2023-08-21T00:04:42;35.98;27.74;47.11;;
69609;Laerm;56815;52.320;4.858;2023-08-21T00:04:52;35.30;28.36;44.61;;
69609;Laerm;56815;52.320;4.858;2023-08-21T00:05:02;38.90;28.32;50.53;;
69609;Laerm;56815;52.320;4.858;2023-08-21T00:05:13;38.61;28.25;48.62;;
69609;Laerm;56815;52.320;4.858;2023-08-21T00:05:23;39.08;28.25;51.39;;
69609;Laerm;56815;52.320;4.858;2023-08-21T00:05:33;37.74;27.95;47.41;;
69609;Laerm;56815;52.320;4.858;2023-08-21T00:05:44;38.75;28.24;48.54;;
69609;Laerm;56815;52.320;4.858;2023-08-21T00:05:54;38.06;28.19;46.58;;
69609;Laerm;56815;52.320;4.858;2023-08-21T00:06:04;38.15;28.52;49.50;;
69609;Laerm;56815;52.320;4.858;2023-08-21T00:06:14;39.00;28.53;49.13;;
69609;Laerm;56815;52.320;4.858;2023-08-21T00:06:25;38.51;28.40;49.76;;
69609;Laerm;56815;52.320;4.858;2023-08-21T00:06:35;37.20;28.87;46.45;;
69609;Laerm;56815;52.320;4.858;2023-08-21T00:06:45;37.70;28.43;50.65;;
69609;Laerm;56815;52.320;4.858;2023-08-21T00:06:55;37.85;28.94;48.23;;
69609;Laerm;56815;52.320;4.858;2023-08-21T00:07:06;37.55;29.32;46.85;;
69609;Laerm;56815;52.320;4.858;2023-08-21T00:07:16;36.13;29.33;44.84;;
69609;Laerm;56815;52.320;4.858;2023-08-21T00:07:27;36.70;29.02;46.46;;
69609;Laerm;56815;52.320;4.858;2023-08-21T00:07:37;37.52;29.53;47.25;;
69609;Laerm;56815;52.320;4.858;2023-08-21T00:07:47;36.53;28.60;45.40;;
69609;Laerm;56815;52.320;4.858;2023-08-21T00:08:00;36.75;28.29;44.56;;
69609;Laerm;56815;52.320;4.858;2023-08-21T00:08:11;36.43;28.47;46.36;;
69609;Laerm;56815;52.320;4.858;2023-08-21T00:08:21;35.91;28.73;46.13;;
69609;Laerm;56815;52.320;4.858;2023-08-21T00:08:31;36.73;28.14;44.78;;
69609;Laerm;56815;52.320;4.858;2023-08-21T00:08:42;38.29;28.54;49.68;;
69609;Laerm;56815;52.320;4.858;2023-08-21T00:08:52;38.90;28.25;51.48;;
69609;Laerm;56815;52.320;4.858;2023-08-21T00:09:02;37.61;28.87;45.40;;
69609;Laerm;56815;52.320;4.858;2023-08-21T00:09:12;36.60;28.43;46.34;;
69609;Laerm;56815;52.320;4.858;2023-08-21T00:09:23;38.89;29.28;48.33;;
69609;Laerm;56815;52.320;4.858;2023-08-21T00:09:33;37.28;29.87;45.43;;
69609;Laerm;56815;52.320;4.858;2023-08-21T00:09:43;37.91;30.20;44.68;;
69609;Laerm;56815;52.320;4.858;2023-08-21T00:09:53;34.30;28.69;41.80;;
69609;Laerm;56815;52.320;4.858;2023-08-21T00:10:04;36.61;28.44;46.54;;
69609;Laerm;56815;52.320;4.858;2023-08-21T00:10:15;37.54;28.27;43.54;;
69609;Laerm;56815;52.320;4.858;2023-08-21T00:10:25;38.47;32.79;44.16;;
69609;Laerm;56815;52.320;4.858;2023-08-21T00:10:38;36.46;29.01;45.45;;
69609;Laerm;56815;52.320;4.858;2023-08-21T00:10:48;37.11;29.57;46.64;;
69609;Laerm;56815;52.320;4.858;2023-08-21T00:10:59;36.35;29.14;44.16;;
69609;Laerm;56815;52.320;4.858;2023-08-21T00:11:09;38.50;30.99;46.61;;
69609;Laerm;56815;52.320;4.858;2023-08-21T00:11:19;35.40;28.75;42.44;;
69609;Laerm;56815;52.320;4.858;2023-08-21T00:11:29;36.95;28.41;46.03;;
69609;Laerm;56815;52.320;4.858;2023-08-21T00:11:40;35.64;27.44;46.95;;
69609;Laerm;56815;52.320;4.858;2023-08-21T00:11:50;36.19;28.87;43.16;;
69609;Laerm;56815;52.320;4.858;2023-08-21T00:12:00;33.87;27.74;42.05;;
69609;Laerm;56815;52.320;4.858;2023-08-21T00:12:10;35.44;28.30;46.88;;
69609;Laerm;56815;52.320;4.858;2023-08-21T00:12:21;34.48;29.08;43.23;;
69609;Laerm;56815;52.320;4.858;2023-08-21T00:12:31;36.64;29.17;47.75;;
69609;Laerm;56815;52.320;4.858;2023-08-21T00:12:41;34.82;28.14;44.93;;
69609;Laerm;56815;52.320;4.858;2023-08-21T00:12:51;35.93;28.12;43.29;;
69609;Laerm;56815;52.320;4.858;2023-08-21T00:13:02;34.28;28.54;41.45;;
69609;Laerm;56815;52.320;4.858;2023-08-21T00:13:12;34.58;28.93;42.71;;
69609;Laerm;56815;52.320;4.858;2023-08-21T00:13:23;36.14;28.96;43.68;;
69609;Laerm;56815;52.320;4.858;2023-08-21T00:13:33;34.85;28.84;42.92;;
69609;Laerm;56815;52.320;4.858;2023-08-21T00:13:44;34.86;28.19;43.41;;
69609;Laerm;56815;52.320;4.858;2023-08-21T00:13:54;36.22;28.10;47.58;;
69609;Laerm;56815;52.320;4.858;2023-08-21T00:14:05;37.22;28.40;45.26;;
69609;Laerm;56815;52.320;4.858;2023-08-21T00:14:16;36.09;28.38;45.87;;
69609;Laerm;56815;52.320;4.858;2023-08-21T00:14:26;36.56;29.10;45.49;;
69609;Laerm;56815;52.320;4.858;2023-08-21T00:14:37;36.29;28.06;49.12;;
69609;Laerm;56815;52.320;4.858;2023-08-21T00:14:47;32.85;27.58;45.56;;
69609;Laerm;56815;52.320;4.858;2023-08-21T00:14:57;28.58;27.37;30.85;;
69609;Laerm;56815;52.320;4.858;2023-08-21T00:15:08;28.79;27.45;34.11;;
69609;Laerm;56815;52.320;4.858;2023-08-21T00:15:19;30.51;27.66;47.49;;
69609;Laerm;56815;52.320;4.858;2023-08-21T00:15:30;29.23;27.79;32.84;;
69609;Laerm;56815;52.320;4.858;2023-08-21T00:15:40;28.88;27.43;32.27;;
69609;Laerm;56815;52.320;4.858;2023-08-21T00:15:50;28.97;27.87;31.37;;
69609;Laerm;56815;52.320;4.858;2023-08-21T00:16:01;30.40;27.39;48.24;;
69609;Laerm;56815;52.320;4.858;2023-08-21T00:16:12;28.76;27.17;36.68;;
69609;Laerm;56815;52.320;4.858;2023-08-21T00:16:22;28.67;27.57;34.55;;
69609;Laerm;56815;52.320;4.858;2023-08-21T00:16:33;28.69;27.29;31.56;;
69609;Laerm;56815;52.320;4.858;2023-08-21T00:16:44;29.31;27.43;41.38;;
69609;Laerm;56815;52.320;4.858;2023-08-21T00:16:54;28.66;27.59;30.15;;
69609;Laerm;56815;52.320;4.858;2023-08-21T00:17:04;28.68;27.55;32.61;;
69609;Laerm;56815;52.320;4.858;2023-08-21T00:17:14;28.75;27.67;32.23;;
69609;Laerm;56815;52.320;4.858;2023-08-21T00:17:25;30.72;27.74;37.62;;
69609;Laerm;56815;52.320;4.858;2023-08-21T00:17:35;31.83;27.88;39.37;;
69609;Laerm;56815;52.320;4.858;2023-08-21T00:17:45;29.66;27.63;39.75;;
69609;Laerm;56815;52.320;4.858;2023-08-21T00:17:56;29.95;27.63;43.02;;
69609;Laerm;56815;52.320;4.858;2023-08-21T00:18:06;32.65;27.72;48.80;;
69609;Laerm;56815;52.320;4.858;2023-08-21T00:18:16;29.27;27.69;36.04;;
69609;Laerm;56815;52.320;4.858;2023-08-21T00:18:27;28.99;27.83;34.62;;
69609;Laerm;56815;52.320;4.858;2023-08-21T00:18:37;31.61;27.47;49.02;;
69609;Laerm;56815;52.320;4.858;2023-08-21T00:18:48;32.34;27.53;50.18;;
69609;Laerm;56815;52.320;4.858;2023-08-21T00:18:58;28.85;27.67;32.66;;
69609;Laerm;56815;52.320;4.858;2023-08-21T00:19:08;29.17;27.86;31.94;;
69609;Laerm;56815;52.320;4.858;2023-08-21T00:19:18;29.11;27.79;33.18;;
69609;Laerm;56815;52.320;4.858;2023-08-21T00:19:29;28.99;27.77;34.07;;
69609;Laerm;56815;52.320;4.858;2023-08-21T00:19:39;28.78;27.53;30.43;;
69609;Laerm;56815;52.320;4.858;2023-08-21T00:19:49;29.39;27.72;39.86;;
69609;Laerm;56815;52.320;4.858;2023-08-21T00:20:00;29.02;27.69;34.00;;
69609;Laerm;56815;52.320;4.858;2023-08-21T00:20:10;28.95;27.25;34.51;;
69609;Laerm;56815;52.320;4.858;2023-08-21T00:20:20;31.14;27.80;49.84;;
69609;Laerm;56815;52.320;4.858;2023-08-21T00:20:31;28.96;27.71;33.99;;
69609;Laerm;56815;52.320;4.858;2023-08-21T00:20:41;30.29;27.69;46.38;;
69609;Laerm;56815;52.320;4.858;2023-08-21T00:20:52;30.93;27.75;48.87;;
69609;Laerm;56815;52.320;4.858;2023-08-21T00:21:03;29.00;27.25;31.57;;
69609;Laerm;56815;52.320;4.858;2023-08-21T00:21:13;28.81;27.59;31.99;;
69609;Laerm;56815;52.320;4.858;2023-08-21T00:21:23;29.03;27.77;35.92;;
69609;Laerm;56815;52.320;4.858;2023-08-21T00:21:34;31.45;27.72;48.26;;
69609;Laerm;56815;52.320;4.858;2023-08-21T00:21:44;29.09;28.01;31.79;;
69609;Laerm;56815;52.320;4.858;2023-08-21T00:21:54;29.27;28.14;30.94;;
69609;Laerm;56815;52.320;4.858;2023-08-21T00:22:04;29.24;27.78;32.55;;
69609;Laerm;56815;52.320;4.858;2023-08-21T00:22:15;29.07;27.66;34.88;;
69609;Laerm;56815;52.320;4.858;2023-08-21T00:22:25;29.13;27.89;34.56;;
69609;Laerm;56815;52.320;4.858;2023-08-21T00:22:36;28.96;27.76;31.15;;
69609;Laerm;56815;52.320;4.858;2023-08-21T00:22:46;29.33;27.73;38.84;;
69609;Laerm;56815;52.320;4.858;2023-08-21T00:22:56;29.79;27.95;33.24;;
69609;Laerm;56815;52.320;4.858;2023-08-21T00:23:07;29.69;28.01;33.98;;
69609;Laerm;56815;52.320;4.858;2023-08-21T00:23:18;30.41;28.13;43.70;;
69609;Laerm;56815;52.320;4.858;2023-08-21T00:23:28;30.46;28.78;35.37;;
69609;Laerm;56815;52.320;4.858;2023-08-21T00:23:39;30.69;29.11;32.27;;
69609;Laerm;56815;52.320;4.858;2023-08-21T00:23:49;31.27;29.61;34.67;;
69609;Laerm;56815;52.320;4.858;2023-08-21T00:23:59;30.27;28.63;33.84;;
69609;Laerm;56815;52.320;4.858;2023-08-21T00:24:09;29.46;28.22;34.32;;
69609;Laerm;56815;52.320;4.858;2023-08-21T00:24:20;29.34;28.12;33.68;;
69609;Laerm;56815;52.320;4.858;2023-08-21T00:24:30;29.83;27.90;31.21;;
69609;Laerm;56815;52.320;4.858;2023-08-21T00:24:40;29.89;28.66;31.63;;
69609;Laerm;56815;52.320;4.858;2023-08-21T00:24:51;30.10;28.69;31.85;;
69609;Laerm;56815;52.320;4.858;2023-08-21T00:25:01;29.61;28.29;34.31;;
69609;Laerm;56815;52.320;4.858;2023-08-21T00:25:11;29.16;27.65;32.35;;
69609;Laerm;56815;52.320;4.858;2023-08-21T00:25:22;30.15;27.76;44.35;;
69609;Laerm;56815;52.320;4.858;2023-08-21T00:25:33;29.51;27.82;34.87;;
69609;Laerm;56815;52.320;4.858;2023-08-21T00:25:45;29.80;27.96;35.31;;
69609;Laerm;56815;52.320;4.858;2023-08-21T00:25:56;29.35;27.62;37.36;;
69609;Laerm;56815;52.320;4.858;2023-08-21T00:26:06;31.03;28.42;42.02;;
69609;Laerm;56815;52.320;4.858;2023-08-21T00:26:16;29.61;28.28;35.23;;
69609;Laerm;56815;52.320;4.858;2023-08-21T00:26:26;30.21;28.27;32.80;;
69609;Laerm;56815;52.320;4.858;2023-08-21T00:26:37;31.95;29.32;47.15;;
69609;Laerm;56815;52.320;4.858;2023-08-21T00:26:47;32.63;30.42;35.48;;
69609;Laerm;56815;52.320;4.858;2023-08-21T00:26:57;34.75;32.21;37.29;;
69609;Laerm;56815;52.320;4.858;2023-08-21T00:27:08;33.06;31.21;36.06;;
69609;Laerm;56815;52.320;4.858;2023-08-21T00:27:18;32.52;30.18;36.36;;
69609;Laerm;56815;52.320;4.858;2023-08-21T00:27:28;32.15;29.96;39.33;;
69609;Laerm;56815;52.320;4.858;2023-08-21T00:27:38;31.44;28.97;44.95;;
69609;Laerm;56815;52.320;4.858;2023-08-21T00:27:49;29.74;28.28;34.47;;
69609;Laerm;56815;52.320;4.858;2023-08-21T00:27:59;29.94;28.57;34.39;;
69609;Laerm;56815;52.320;4.858;2023-08-21T00:28:09;32.94;28.06;50.66;;
69609;Laerm;56815;52.320;4.858;2023-08-21T00:28:19;29.95;28.45;35.18;;
69609;Laerm;56815;52.320;4.858;2023-08-21T00:28:30;30.81;29.11;34.82;;
69609;Laerm;56815;52.320;4.858;2023-08-21T00:28:43;30.59;28.33;34.41;;
69609;Laerm;56815;52.320;4.858;2023-08-21T00:28:53;29.50;28.12;34.00;;
69609;Laerm;56815;52.320;4.858;2023-08-21T00:29:03;31.18;28.28;48.53;;
69609;Laerm;56815;52.320;4.858;2023-08-21T00:29:14;31.82;28.04;48.40;;
69609;Laerm;56815;52.320;4.858;2023-08-21T00:29:24;29.82;28.66;32.52;;
69609;Laerm;56815;52.320;4.858;2023-08-21T00:29:34;33.31;28.52;41.93;;
69609;Laerm;56815;52.320;4.858;2023-08-21T00:29:45;30.81;29.06;34.13;;
69609;Laerm;56815;52.320;4.858;2023-08-21T00:29:55;30.27;28.22;39.39;;
69609;Laerm;56815;52.320;4.858;2023-08-21T00:30:05;32.14;28.08;45.35;;
69609;Laerm;56815;52.320;4.858;2023-08-21T00:30:16;30.22;28.12;45.74;;
69609;Laerm;56815;52.320;4.858;2023-08-21T00:30:26;30.12;28.33;45.55;;
69609;Laerm;56815;52.320;4.858;2023-08-21T00:30:36;29.88;28.48;32.94;;
69609;Laerm;56815;52.320;4.858;2023-08-21T00:30:46;30.52;28.98;33.57;;
69609;Laerm;56815;52.320;4.858;2023-08-21T00:31:00;31.87;28.66;45.74;;
69609;Laerm;56815;52.320;4.858;2023-08-21T00:31:10;30.70;28.15;45.04;;
69609;Laerm;56815;52.320;4.858;2023-08-21T00:31:21;29.39;27.57;31.49;;
69609;Laerm;56815;52.320;4.858;2023-08-21T00:31:31;29.29;28.06;31.21;;
69609;Laerm;56815;52.320;4.858;2023-08-21T00:31:41;31.36;28.06;46.67;;
69609;Laerm;56815;52.320;4.858;2023-08-21T00:31:52;31.16;28.24;44.52;;
69609;Laerm;56815;52.320;4.858;2023-08-21T00:32:02;30.04;28.39;33.29;;
69609;Laerm;56815;52.320;4.858;2023-08-21T00:32:12;30.87;28.75;38.72;;
69609;Laerm;56815;52.320;4.858;2023-08-21T00:32:22;30.98;29.62;33.95;;
69609;Laerm;56815;52.320;4.858;2023-08-21T00:32:33;30.83;28.93;41.18;;
69609;Laerm;56815;52.320;4.858;2023-08-21T00:32:43;30.82;28.46;42.51;;
69609;Laerm;56815;52.320;4.858;2023-08-21T00:32:53;29.95;28.23;38.87;;
69609;Laerm;56815;52.320;4.858;2023-08-21T00:33:04;31.30;28.07;47.62;;
69609;Laerm;56815;52.320;4.858;2023-08-21T00:33:14;30.66;29.30;33.71;;
69609;Laerm;56815;52.320;4.858;2023-08-21T00:33:24;29.97;28.08;40.37;;
69609;Laerm;56815;52.320;4.858;2023-08-21T00:33:34;31.82;28.23;48.99;;
69609;Laerm;56815;52.320;4.858;2023-08-21T00:33:45;29.40;28.01;33.34;;
69609;Laerm;56815;52.320;4.858;2023-08-21T00:33:55;29.29;27.94;31.57;;
69609;Laerm;56815;52.320;4.858;2023-08-21T00:34:05;29.63;28.28;32.46;;
69609;Laerm;56815;52.320;4.858;2023-08-21T00:34:16;29.64;28.38;34.54;;
69609;Laerm;56815;52.320;4.858;2023-08-21T00:34:26;29.98;27.89;44.31;;
69609;Laerm;56815;52.320;4.858;2023-08-21T00:34:36;29.44;27.98;33.59;;
69609;Laerm;56815;52.320;4.858;2023-08-21T00:34:46;29.82;28.73;31.75;;
69609;Laerm;56815;52.320;4.858;2023-08-21T00:34:57;31.06;28.57;43.68;;
69609;Laerm;56815;52.320;4.858;2023-08-21T00:35:07;30.43;28.82;33.21;;
69609;Laerm;56815;52.320;4.858;2023-08-21T00:35:17;30.11;28.55;36.58;;
69609;Laerm;56815;52.320;4.858;2023-08-21T00:35:28;30.18;28.45;33.92;;
69609;Laerm;56815;52.320;4.858;2023-08-21T00:35:38;29.55;28.13;33.16;;
69609;Laerm;56815;52.320;4.858;2023-08-21T00:35:48;29.73;28.22;34.70;;
69609;Laerm;56815;52.320;4.858;2023-08-21T00:35:59;29.65;28.35;32.88;;
69609;Laerm;56815;52.320;4.858;2023-08-21T00:36:09;30.15;28.64;33.29;;
69609;Laerm;56815;52.320;4.858;2023-08-21T00:36:19;30.18;28.73;34.26;;
69609;Laerm;56815;52.320;4.858;2023-08-21T00:36:30;30.13;28.60;33.67;;
69609;Laerm;56815;52.320;4.858;2023-08-21T00:36:40;29.80;28.15;34.16;;
69609;Laerm;56815;52.320;4.858;2023-08-21T00:36:50;29.79;28.28;33.95;;
69609;Laerm;56815;52.320;4.858;2023-08-21T00:37:01;30.15;28.03;36.76;;
69609;Laerm;56815;52.320;4.858;2023-08-21T00:37:11;30.99;29.44;34.45;;
69609;Laerm;56815;52.320;4.858;2023-08-21T00:37:21;30.21;28.85;32.55;;
69609;Laerm;56815;52.320;4.858;2023-08-21T00:37:31;30.84;28.68;44.69;;
69609;Laerm;56815;52.320;4.858;2023-08-21T00:37:42;31.75;28.49;50.10;;
69609;Laerm;56815;52.320;4.858;2023-08-21T00:37:52;29.62;28.22;32.03;;
69609;Laerm;56815;52.320;4.858;2023-08-21T00:38:02;29.55;28.26;35.38;;
69609;Laerm;56815;52.320;4.858;2023-08-21T00:38:12;29.57;28.38;35.15;;
69609;Laerm;56815;52.320;4.858;2023-08-21T00:38:23;29.37;28.06;32.38;;
69609;Laerm;56815;52.320;4.858;2023-08-21T00:38:34;29.25;27.92;33.57;;
69609;Laerm;56815;52.320;4.858;2023-08-21T00:38:44;29.26;28.08;31.66;;
69609;Laerm;56815;52.320;4.858;2023-08-21T00:38:54;30.32;27.98;45.11;;
69609;Laerm;56815;52.320;4.858;2023-08-21T00:39:05;30.31;28.42;42.94;;
69609;Laerm;56815;52.320;4.858;2023-08-21T00:39:16;29.99;28.27;32.57;;
69609;Laerm;56815;52.320;4.858;2023-08-21T00:39:27;29.66;28.04;33.22;;
69609;Laerm;56815;52.320;4.858;2023-08-21T00:39:37;29.22;27.93;33.42;;
69609;Laerm;56815;52.320;4.858;2023-08-21T00:39:47;29.24;28.01;32.36;;
69609;Laerm;56815;52.320;4.858;2023-08-21T00:39:57;29.36;27.93;37.13;;
69609;Laerm;56815;52.320;4.858;2023-08-21T00:40:08;29.10;27.84;30.95;;
69609;Laerm;56815;52.320;4.858;2023-08-21T00:40:18;29.28;27.77;32.94;;
69609;Laerm;56815;52.320;4.858;2023-08-21T00:40:30;29.29;27.61;36.57;;
69609;Laerm;56815;52.320;4.858;2023-08-21T00:40:40;29.25;28.13;33.10;;
69609;Laerm;56815;52.320;4.858;2023-08-21T00:40:51;29.49;28.11;32.08;;
69609;Laerm;56815;52.320;4.858;2023-08-21T00:41:01;32.01;29.10;44.91;;
69609;Laerm;56815;52.320;4.858;2023-08-21T00:41:11;29.68;28.17;34.41;;
69609;Laerm;56815;52.320;4.858;2023-08-21T00:41:22;29.47;27.54;39.58;;
69609;Laerm;56815;52.320;4.858;2023-08-21T00:41:32;30.62;28.25;45.45;;
69609;Laerm;56815;52.320;4.858;2023-08-21T00:41:44;30.22;28.18;34.98;;
69609;Laerm;56815;52.320;4.858;2023-08-21T00:41:54;29.53;28.13;34.77;;
69609;Laerm;56815;52.320;4.858;2023-08-21T00:42:04;29.44;27.83;30.78;;
69609;Laerm;56815;52.320;4.858;2023-08-21T00:42:17;29.13;27.96;32.11;;
69609;Laerm;56815;52.320;4.858;2023-08-21T00:42:27;30.10;27.87;42.68;;
69609;Laerm;56815;52.320;4.858;2023-08-21T00:42:37;33.44;27.88;50.54;;
69609;Laerm;56815;52.320;4.858;2023-08-21T00:42:48;29.24;27.78;33.51;;
69609;Laerm;56815;52.320;4.858;2023-08-21T00:42:58;29.34;28.08;35.74;;
69609;Laerm;56815;52.320;4.858;2023-08-21T00:43:08;31.73;27.95;49.42;;
69609;Laerm;56815;52.320;4.858;2023-08-21T00:43:18;30.54;27.85;44.66;;
69609;Laerm;56815;52.320;4.858;2023-08-21T00:43:29;29.32;27.89;37.15;;
69609;Laerm;56815;52.320;4.858;2023-08-21T00:43:39;29.36;27.98;31.71;;
69609;Laerm;56815;52.320;4.858;2023-08-21T00:43:49;29.18;28.18;32.11;;
69609;Laerm;56815;52.320;4.858;2023-08-21T00:44:00;29.44;27.49;32.93;;
69609;Laerm;56815;52.320;4.858;2023-08-21T00:44:10;29.22;27.91;32.90;;
69609;Laerm;56815;52.320;4.858;2023-08-21T00:44:20;29.64;28.27;32.95;;
69609;Laerm;56815;52.320;4.858;2023-08-21T00:44:31;29.56;28.16;31.70;;
69609;Laerm;56815;52.320;4.858;2023-08-21T00:44:41;29.70;28.35;33.99;;
69609;Laerm;56815;52.320;4.858;2023-08-21T00:44:51;29.93;28.12;34.07;;
69609;Laerm;56815;52.320;4.858;2023-08-21T00:45:01;33.62;28.24;50.78;;
69609;Laerm;56815;52.320;4.858;2023-08-21T00:45:13;29.57;28.05;35.38;;
69609;Laerm;56815;52.320;4.858;2023-08-21T00:45:24;29.70;28.02;36.96;;
69609;Laerm;56815;52.320;4.858;2023-08-21T00:45:34;29.33;28.14;33.14;;
69609;Laerm;56815;52.320;4.858;2023-08-21T00:45:45;29.93;28.03;43.39;;
69609;Laerm;56815;52.320;4.858;2023-08-21T00:45:56;29.35;28.12;34.11;;
69609;Laerm;56815;52.320;4.858;2023-08-21T00:46:07;29.62;28.19;32.47;;
69609;Laerm;56815;52.320;4.858;2023-08-21T00:46:17;30.20;28.55;33.81;;
69609;Laerm;56815;52.320;4.858;2023-08-21T00:46:27;30.98;28.43;45.35;;
69609;Laerm;56815;52.320;4.858;2023-08-21T00:46:38;29.87;28.38;34.42;;
69609;Laerm;56815;52.320;4.858;2023-08-21T00:46:48;30.57;29.05;35.50;;
69609;Laerm;56815;52.320;4.858;2023-08-21T00:46:58;30.67;29.02;33.98;;
69609;Laerm;56815;52.320;4.858;2023-08-21T00:47:09;33.19;29.41;48.99;;
69609;Laerm;56815;52.320;4.858;2023-08-21T00:47:19;30.59;28.84;39.21;;
69609;Laerm;56815;52.320;4.858;2023-08-21T00:47:30;30.24;28.48;34.18;;
69609;Laerm;56815;52.320;4.858;2023-08-21T00:47:40;29.65;28.45;34.14;;
69609;Laerm;56815;52.320;4.858;2023-08-21T00:47:51;29.29;28.08;34.80;;
69609;Laerm;56815;52.320;4.858;2023-08-21T00:48:01;30.64;27.48;49.52;;
69609;Laerm;56815;52.320;4.858;2023-08-21T00:48:11;29.17;27.80;33.08;;
69609;Laerm;56815;52.320;4.858;2023-08-21T00:48:23;29.16;27.45;32.95;;
69609;Laerm;56815;52.320;4.858;2023-08-21T00:48:34;29.32;28.05;32.56;;
69609;Laerm;56815;52.320;4.858;2023-08-21T00:48:44;29.49;28.30;31.27;;
69609;Laerm;56815;52.320;4.858;2023-08-21T00:48:55;29.07;27.95;31.97;;
69609;Laerm;56815;52.320;4.858;2023-08-21T00:49:05;29.09;27.96;32.15;;
69609;Laerm;56815;52.320;4.858;2023-08-21T00:49:15;29.50;28.06;34.50;;
69609;Laerm;56815;52.320;4.858;2023-08-21T00:49:26;29.13;27.61;33.03;;
69609;Laerm;56815;52.320;4.858;2023-08-21T00:49:36;29.12;28.07;34.18;;
69609;Laerm;56815;52.320;4.858;2023-08-21T00:49:49;28.95;27.73;31.32;;
69609;Laerm;56815;52.320;4.858;2023-08-21T00:49:59;29.59;28.06;33.52;;
69609;Laerm;56815;52.320;4.858;2023-08-21T00:50:10;33.60;30.56;49.62;;
69609;Laerm;56815;52.320;4.858;2023-08-21T00:50:21;30.48;27.95;44.29;;
69609;Laerm;56815;52.320;4.858;2023-08-21T00:50:31;29.30;27.98;32.42;;
69609;Laerm;56815;52.320;4.858;2023-08-21T00:50:42;29.05;27.74;31.41;;
69609;Laerm;56815;52.320;4.858;2023-08-21T00:50:53;31.68;28.26;48.34;;
69609;Laerm;56815;52.320;4.858;2023-08-21T00:51:03;30.99;28.08;34.42;;
69609;Laerm;56815;52.320;4.858;2023-08-21T00:51:14;30.63;28.27;34.14;;
69609;Laerm;56815;52.320;4.858;2023-08-21T00:51:25;29.30;28.22;31.74;;
69609;Laerm;56815;52.320;4.858;2023-08-21T00:51:36;30.01;28.03;33.82;;
69609;Laerm;56815;52.320;4.858;2023-08-21T00:51:47;31.03;27.95;34.54;;
69609;Laerm;56815;52.320;4.858;2023-08-21T00:51:58;31.14;27.81;47.44;;
69609;Laerm;56815;52.320;4.858;2023-08-21T00:52:10;28.91;27.69;32.00;;
69609;Laerm;56815;52.320;4.858;2023-08-21T00:52:22;29.56;27.87;32.80;;
69609;Laerm;56815;52.320;4.858;2023-08-21T00:52:33;32.34;27.76;47.74;;
69609;Laerm;56815;52.320;4.858;2023-08-21T00:52:44;29.04;27.62;36.76;;
69609;Laerm;56815;52.320;4.858;2023-08-21T00:52:55;29.96;28.27;37.65;;
69609;Laerm;56815;52.320;4.858;2023-08-21T00:53:05;30.94;28.37;33.83;;
69609;Laerm;56815;52.320;4.858;2023-08-21T00:53:16;29.36;27.69;35.73;;
69609;Laerm;56815;52.320;4.858;2023-08-21T00:53:27;29.00;27.21;34.46;;
69609;Laerm;56815;52.320;4.858;2023-08-21T00:53:37;29.40;27.91;31.37;;
69609;Laerm;56815;52.320;4.858;2023-08-21T00:53:48;29.76;28.29;33.44;;
69609;Laerm;56815;52.320;4.858;2023-08-21T00:53:58;29.19;28.03;34.28;;
69609;Laerm;56815;52.320;4.858;2023-08-21T00:54:08;29.01;27.75;32.26;;
69609;Laerm;56815;52.320;4.858;2023-08-21T00:54:19;28.77;27.27;33.81;;
69609;Laerm;56815;52.320;4.858;2023-08-21T00:54:30;28.60;27.43;32.56;;
69609;Laerm;56815;52.320;4.858;2023-08-21T00:54:40;28.61;27.48;34.86;;
69609;Laerm;56815;52.320;4.858;2023-08-21T00:54:51;28.69;27.52;32.97;;
69609;Laerm;56815;52.320;4.858;2023-08-21T00:55:01;28.59;27.34;31.38;;
69609;Laerm;56815;52.320;4.858;2023-08-21T00:55:13;29.16;27.46;31.74;;
69609;Laerm;56815;52.320;4.858;2023-08-21T00:55:24;29.07;27.57;33.31;;
69609;Laerm;56815;52.320;4.858;2023-08-21T00:55:34;29.10;27.50;39.10;;
69609;Laerm;56815;52.320;4.858;2023-08-21T00:55:45;28.80;27.48;34.60;;
69609;Laerm;56815;52.320;4.858;2023-08-21T00:55:55;28.75;27.64;30.80;;
69609;Laerm;56815;52.320;4.858;2023-08-21T00:56:06;28.78;27.64;34.11;;
69609;Laerm;56815;52.320;4.858;2023-08-21T00:56:16;30.65;27.69;47.46;;
69609;Laerm;56815;52.320;4.858;2023-08-21T00:56:27;29.82;28.17;37.56;;
69609;Laerm;56815;52.320;4.858;2023-08-21T00:56:37;30.21;28.63;32.84;;
69609;Laerm;56815;52.320;4.858;2023-08-21T00:56:48;29.76;28.20;32.36;;
69609;Laerm;56815;52.320;4.858;2023-08-21T00:57:01;31.11;28.58;35.81;;
69609;Laerm;56815;52.320;4.858;2023-08-21T00:57:11;31.23;29.70;35.03;;
69609;Laerm;56815;52.320;4.858;2023-08-21T00:57:22;31.77;28.22;49.42;;
69609;Laerm;56815;52.320;4.858;2023-08-21T00:57:32;29.58;28.06;37.26;;
69609;Laerm;56815;52.320;4.858;2023-08-21T00:57:43;29.32;28.09;32.11;;
69609;Laerm;56815;52.320;4.858;2023-08-21T00:57:53;29.50;28.23;33.30;;
69609;Laerm;56815;52.320;4.858;2023-08-21T00:58:04;29.45;28.20;34.93;;
69609;Laerm;56815;52.320;4.858;2023-08-21T00:58:15;29.48;28.11;33.80;;
69609;Laerm;56815;52.320;4.858;2023-08-21T00:58:26;29.07;27.84;32.97;;
69609;Laerm;56815;52.320;4.858;2023-08-21T00:58:37;29.00;27.69;32.02;;